الصفحة الرئيسية
METAR-TAF:

METAR-TAF

مطار :

سكياثوس, اليونان

دائرة عرض: 39-11N, خط طول: 023-30E, ارتفاع: 15 متر

مراقبة الطقس الحالي

تاريخ ووقت الإصدار 11ساعات و 8 دقيقة قبل الساعة 09:50UTC
ريح 4 عقدة من الشمال/الشمال الشرقي
درجة الحرارة 21°درجة مئوية
الرطوبة 56%
ضغط 1016 hPa
الرؤية 10 كم أو أكثر
غيوم قليلة على ارتفاع 2000 قدم

METAR: LGSK 290950Z 02004KT 9999 FEW020 21/12 Q1016

زمن: 23:58 (20:58 UTC)

توقعات

تاريخ ووقت الإصدار 58 دقيقة قبل الساعة 20:00UTC
التوقعات صالحة من29 الساعة 21 UTC إلى 30 الساعة 06 UTC
ريح 8 عقدة من الجنوب
الرؤية 10 كم أو أكثر
غيوم قليلة على ارتفاع 2000 قدم
غيوم متفرقة على ارتفاع 6000 قدم
أصبح
من 30 الساعة 02 UTC إلى 30 الساعة 04 UTC
ريح 12 عقدة من الغرب

TAF: LGSK 292000Z 2921/3006 18008KT 9999 FEW020 SCT060 BECMG 3002/3004 27012KT

أرصاد الطقس والتوقعات من أكثر من 4000 مطار (تقارير الطقس للمطار METAR والتنبؤ بالطقس بالمطارTAF).

المحطات المتاحة هي النقط الصفراء والحمراء على الخريطة.

حرك المؤشر فوق النقطة لمعرفة اسم المحطة.

ثم انقر لمعرفة أرصاد وتوقعات الطقس.

لتغيير الخارطة: اضغط على الأزرار الخضراء مع رمز الصليب الأسود للتكبير. على الزر الأخضر مع شرطة للتصغير، أو على الأسهم الخضراء للخرائط المجاورة.


METAR-TAF: